Time;durP1;ratioP1;P1;durP2;ratioP2;P2;SDS_P1;SDS_P2;PMS_P1;PMS_P2;Temp;Humidity;BMP_temperature;BMP_pressure;BME280_temperature;BME280_humidity;BME280_pressure;Samples;Min_cycle;Max_cycle;Signal;HPM_P1;HPM_P2
2021/09/28 00:01:55;;;;;;;12.77;2.28;;;;;;;11.19;100.00;102059.91;5263761;28;20043;-68
2021/09/28 00:04:26;;;;;;;14.25;2.53;;;;;;;11.24;100.00;102054.34;5265638;28;20040;-67
2021/09/28 00:06:58;;;;;;;8.20;2.05;;;;;;;11.20;100.00;102066.84;5267108;28;20024;-67
2021/09/28 00:09:29;;;;;;;12.02;2.70;;;;;;;11.16;100.00;102064.53;5265648;28;20036;-69
2021/09/28 00:12:00;;;;;;;9.77;2.35;;;;;;;11.11;100.00;102053.53;5265944;28;20026;-68
2021/09/28 00:14:32;;;;;;;10.20;2.50;;;;;;;11.14;100.00;102072.53;5263609;28;20067;-69
2021/09/28 00:17:03;;;;;;;9.80;2.28;;;;;;;11.09;100.00;102064.09;5264118;28;20029;-68
2021/09/28 00:19:35;;;;;;;10.30;2.50;;;;;;;11.09;100.00;102069.34;5266827;28;20507;-68
2021/09/28 00:22:07;;;;;;;13.77;3.33;;;;;;;11.08;100.00;102072.09;5266154;28;20537;-68
2021/09/28 00:24:38;;;;;;;8.23;2.08;;;;;;;11.06;100.00;102076.56;5264256;28;20025;-68
2021/09/28 00:27:09;;;;;;;9.82;2.17;;;;;;;11.03;100.00;102080.28;5262719;28;20493;-70
2021/09/28 00:29:41;;;;;;;7.25;2.40;;;;;;;11.09;100.00;102086.88;5265511;28;20047;-69
2021/09/28 00:32:12;;;;;;;12.02;2.78;;;;;;;11.05;100.00;102088.03;5264181;28;20029;-68
2021/09/28 00:34:45;;;;;;;16.33;2.70;;;;;;;11.05;100.00;102082.78;5263379;28;20535;-68
2021/09/28 00:37:16;;;;;;;11.68;2.60;;;;;;;11.03;100.00;102085.50;5263731;28;20472;-68
2021/09/28 00:39:48;;;;;;;9.45;2.10;;;;;;;11.00;100.00;102087.50;5263219;28;20132;-68
2021/09/28 00:42:19;;;;;;;7.18;1.92;;;;;;;11.03;100.00;102088.13;5263166;28;20099;-67
2021/09/28 00:44:50;;;;;;;8.50;2.53;;;;;;;11.03;100.00;102090.75;5263776;28;20031;-68
2021/09/28 00:47:22;;;;;;;9.27;2.53;;;;;;;11.02;100.00;102085.59;5262284;28;20028;-68
2021/09/28 00:49:53;;;;;;;11.43;2.33;;;;;;;11.02;100.00;102082.97;5265319;28;20539;-68
2021/09/28 00:52:24;;;;;;;9.82;2.10;;;;;;;11.00;100.00;102088.34;5266233;28;20541;-68
2021/09/28 00:54:56;;;;;;;10.27;2.55;;;;;;;10.99;100.00;102084.03;5266590;28;20024;-68
2021/09/28 00:57:30;;;;;;;12.48;2.55;;;;;;;11.00;100.00;102084.88;5263449;28;20029;-68
2021/09/28 01:00:03;;;;;;;8.75;2.47;;;;;;;10.96;100.00;102084.25;5264546;28;20516;-68
2021/09/28 01:02:35;;;;;;;11.48;2.47;;;;;;;10.95;100.00;102083.41;5264745;28;20029;-68
2021/09/28 01:05:08;;;;;;;10.15;2.50;;;;;;;10.93;100.00;102084.44;5264667;28;20025;-68
2021/09/28 01:07:39;;;;;;;9.73;2.20;;;;;;;10.93;100.00;102093.13;5264489;28;20551;-68
2021/09/28 01:10:11;;;;;;;9.43;2.42;;;;;;;10.90;100.00;102089.88;5262524;28;20074;-68
2021/09/28 01:12:42;;;;;;;9.02;2.20;;;;;;;10.90;100.00;102089.88;5265712;28;20063;-68
2021/09/28 01:15:13;;;;;;;10.45;2.30;;;;;;;10.88;100.00;102087.38;5263774;28;20033;-68
2021/09/28 01:17:45;;;;;;;12.48;2.17;;;;;;;10.85;100.00;102084.94;5263725;28;20482;-68
2021/09/28 01:20:16;;;;;;;12.38;3.45;;;;;;;10.87;100.00;102096.19;5264699;28;20223;-68
2021/09/28 01:22:47;;;;;;;8.13;2.60;;;;;;;10.86;100.00;102088.41;5262790;28;20502;-68
2021/09/28 01:25:18;;;;;;;10.00;2.60;;;;;;;10.80;100.00;102096.69;5262083;28;20490;-69
2021/09/28 01:27:50;;;;;;;10.15;2.53;;;;;;;10.81;100.00;102091.34;5265353;28;20447;-67
2021/09/28 01:30:21;;;;;;;13.25;3.13;;;;;;;10.80;100.00;102100.16;5263723;28;20115;-68
2021/09/28 01:32:52;;;;;;;9.02;2.17;;;;;;;10.80;100.00;102099.31;5263494;28;20516;-68
2021/09/28 01:35:23;;;;;;;6.97;2.05;;;;;;;10.78;100.00;102101.19;5261971;28;20527;-68
2021/09/28 01:37:55;;;;;;;11.32;2.38;;;;;;;10.71;100.00;102091.09;5266098;28;20506;-68
2021/09/28 01:40:27;;;;;;;15.75;2.63;;;;;;;10.76;100.00;102097.81;5263011;28;20127;-68
2021/09/28 01:43:05;;;;;;;8.68;2.25;;;;;;;10.74;100.00;102092.69;5263016;28;20501;-68
2021/09/28 01:45:42;;;;;;;10.80;2.20;;;;;;;10.77;100.00;102099.50;5265746;28;20021;-67
2021/09/28 01:48:14;;;;;;;10.65;1.80;;;;;;;10.67;100.00;102091.41;5264483;28;20433;-68
2021/09/28 01:50:45;;;;;;;11.18;2.00;;;;;;;10.66;100.00;102100.19;5262830;28;20032;-68
2021/09/28 01:53:16;;;;;;;9.82;2.58;;;;;;;10.68;100.00;102104.41;5262113;28;20107;-68
2021/09/28 01:55:48;;;;;;;7.18;2.15;;;;;;;10.66;100.00;102098.41;5264417;28;20669;-68
2021/09/28 01:58:19;;;;;;;12.13;2.33;;;;;;;10.67;100.00;102099.25;5264115;28;20082;-67
2021/09/28 02:00:50;;;;;;;9.88;2.45;;;;;;;10.62;100.00;102103.97;5260253;28;20033;-68
2021/09/28 02:03:22;;;;;;;7.20;2.22;;;;;;;10.67;100.00;102105.34;5264352;28;20028;-68
2021/09/28 02:05:53;;;;;;;12.35;2.70;;;;;;;10.60;100.00;102098.81;5262433;28;20060;-68
2021/09/28 02:08:24;;;;;;;9.60;2.47;;;;;;;10.62;100.00;102104.81;5262624;28;20054;-68
2021/09/28 02:10:55;;;;;;;7.50;2.13;;;;;;;10.60;100.00;102111.06;5263202;28;20032;-68
2021/09/28 02:13:27;;;;;;;6.40;2.08;;;;;;;10.56;100.00;102113.03;5266076;28;20485;-68
2021/09/28 02:15:58;;;;;;;8.88;2.90;;;;;;;10.54;100.00;102109.72;5263843;28;20390;-68
2021/09/28 02:18:29;;;;;;;7.32;2.08;;;;;;;10.54;100.00;102106.25;5263450;28;20029;-68
2021/09/28 02:21:01;;;;;;;7.85;2.20;;;;;;;10.54;100.00;102106.25;5264385;28;20544;-68
2021/09/28 02:23:33;;;;;;;8.32;2.15;;;;;;;10.53;100.00;102115.03;5263655;28;20067;-68
2021/09/28 02:26:04;;;;;;;11.07;2.42;;;;;;;10.51;100.00;102109.06;5262004;28;20757;-68
2021/09/28 02:28:35;;;;;;;9.70;2.67;;;;;;;10.52;100.00;102110.72;5264622;28;20449;-67
2021/09/28 02:31:06;;;;;;;7.20;2.55;;;;;;;10.48;100.00;102112.72;5263511;28;20120;-67
2021/09/28 02:33:38;;;;;;;10.20;2.78;;;;;;;10.48;100.00;102107.47;5261154;28;20028;-66
2021/09/28 02:36:09;;;;;;;11.55;2.35;;;;;;;10.47;100.00;102105.78;5263231;28;20382;-66
2021/09/28 02:38:40;;;;;;;9.02;2.30;;;;;;;10.46;100.00;102112.81;5263961;28;20056;-66
2021/09/28 02:41:12;;;;;;;11.73;2.85;;;;;;;10.44;100.00;102112.06;5263198;28;20039;-67
2021/09/28 02:43:43;;;;;;;12.50;3.00;;;;;;;10.44;100.00;102114.69;5258046;28;20032;-67
2021/09/28 02:46:16;;;;;;;12.13;2.37;;;;;;;10.44;100.00;102119.91;5264024;28;20409;-67
2021/09/28 02:48:47;;;;;;;12.48;2.53;;;;;;;10.42;100.00;102123.59;5264928;28;20037;-67
2021/09/28 02:51:18;;;;;;;10.95;2.38;;;;;;;10.44;100.00;102129.56;5263952;28;20036;-67
2021/09/28 02:53:49;;;;;;;7.05;2.22;;;;;;;10.42;100.00;102120.97;5262222;28;20095;-67
2021/09/28 02:56:21;;;;;;;10.85;2.35;;;;;;;10.38;100.00;102125.56;5262354;28;20039;-67
2021/09/28 02:58:52;;;;;;;11.40;2.13;;;;;;;10.40;100.00;102128.09;5268482;28;20024;-67
2021/09/28 03:01:24;;;;;;;8.55;2.13;;;;;;;10.39;100.00;102127.25;5267629;28;20409;-67
2021/09/28 03:03:55;;;;;;;10.20;2.33;;;;;;;10.38;100.00;102136.03;5264887;28;20029;-67
2021/09/28 03:06:26;;;;;;;9.18;2.85;;;;;;;10.38;100.00;102136.03;5265925;28;20021;-67
2021/09/28 03:08:58;;;;;;;11.70;2.53;;;;;;;10.36;100.00;102132.66;5266471;28;20043;-67
2021/09/28 03:11:30;;;;;;;9.77;2.67;;;;;;;10.35;100.00;102136.25;5268259;28;20099;-67
2021/09/28 03:14:01;;;;;;;9.40;2.28;;;;;;;10.35;100.00;102138.03;5269372;28;20076;-67
2021/09/28 03:16:33;;;;;;;11.20;2.50;;;;;;;10.33;100.00;102135.47;5263626;28;20067;-67
2021/09/28 03:19:04;;;;;;;9.00;1.98;;;;;;;10.33;100.00;102132.84;5267588;28;20535;-67
2021/09/28 03:21:36;;;;;;;8.95;2.42;;;;;;;10.30;100.00;102133.03;5266419;28;20056;-67
2021/09/28 03:24:07;;;;;;;9.95;2.42;;;;;;;10.30;100.00;102129.59;5266621;28;20104;-67
2021/09/28 03:26:38;;;;;;;6.82;1.92;;;;;;;10.30;100.00;102135.66;5266951;28;20509;-66
2021/09/28 03:29:10;;;;;;;9.73;2.50;;;;;;;10.28;100.00;102134.09;5264970;28;20033;-67
2021/09/28 03:31:42;;;;;;;7.60;2.10;;;;;;;10.25;100.00;102142.97;5266378;28;20032;-67
2021/09/28 03:34:13;;;;;;;9.35;2.33;;;;;;;10.23;100.00;102132.59;5265502;28;20070;-67
2021/09/28 03:36:44;;;;;;;8.57;1.98;;;;;;;10.22;100.00;102136.13;5266262;28;20036;-67
2021/09/28 03:39:16;;;;;;;8.45;2.30;;;;;;;10.22;100.00;102137.91;5264852;28;20045;-67
2021/09/28 03:41:48;;;;;;;8.65;2.10;;;;;;;10.23;100.00;102129.13;5265372;28;20036;-66
2021/09/28 03:44:19;;;;;;;10.65;2.53;;;;;;;10.20;100.00;102132.78;5269030;28;20017;-67
2021/09/28 03:46:50;;;;;;;9.27;2.22;;;;;;;10.21;100.00;102133.59;5266459;28;20400;-67
2021/09/28 03:49:22;;;;;;;6.88;1.95;;;;;;;10.21;100.00;102133.59;5266148;28;20032;-67
2021/09/28 03:51:53;;;;;;;12.98;2.28;;;;;;;10.19;100.00;102131.09;5265853;28;20073;-67
2021/09/28 03:54:24;;;;;;;7.35;2.28;;;;;;;10.17;100.00;102137.34;5266332;28;20032;-67
2021/09/28 03:56:56;;;;;;;6.82;1.98;;;;;;;10.13;100.00;102139.31;5266516;28;20482;-67
2021/09/28 03:59:27;;;;;;;9.68;2.30;;;;;;;10.13;100.00;102144.56;5262532;28;20490;-67
2021/09/28 04:01:58;;;;;;;10.20;1.90;;;;;;;10.15;100.00;102140.09;5263691;28;20496;-67
2021/09/28 04:04:29;;;;;;;7.97;2.40;;;;;;;10.13;100.00;102138.50;5268761;28;20551;-67
2021/09/28 04:07:01;;;;;;;7.55;1.90;;;;;;;10.12;100.00;102147.28;5265462;28;20055;-67
2021/09/28 04:09:32;;;;;;;10.88;2.70;;;;;;;10.09;100.00;102152.72;5266045;28;20029;-66
2021/09/28 04:12:04;;;;;;;10.95;2.25;;;;;;;10.08;100.00;102151.88;5267137;28;20020;-67
2021/09/28 04:14:36;;;;;;;11.73;2.53;;;;;;;10.09;100.00;102153.53;5264350;28;20397;-67
2021/09/28 04:17:07;;;;;;;8.00;2.20;;;;;;;10.05;100.00;102153.84;5265536;28;20675;-67
2021/09/28 04:19:38;;;;;;;8.18;2.20;;;;;;;10.04;100.00;102152.13;5264220;28;20601;-66
2021/09/28 04:22:09;;;;;;;9.05;2.03;;;;;;;10.04;100.00;102155.63;5265007;28;20470;-67
2021/09/28 04:24:41;;;;;;;9.98;2.55;;;;;;;10.03;100.00;102153.91;5261872;28;20909;-67
2021/09/28 04:27:12;;;;;;;9.98;2.50;;;;;;;10.02;100.00;102157.47;5262658;28;20102;-67
2021/09/28 04:29:44;;;;;;;8.98;2.38;;;;;;;10.02;100.00;102154.00;5266695;28;20098;-67
2021/09/28 04:32:15;;;;;;;16.63;2.50;;;;;;;10.01;100.00;102162.81;5266452;28;20059;-67
2021/09/28 04:34:46;;;;;;;8.65;2.30;;;;;;;9.96;100.00;102155.22;5265694;28;20031;-67
2021/09/28 04:37:18;;;;;;;7.55;2.50;;;;;;;9.91;100.00;102150.28;5263210;28;20032;-68
2021/09/28 04:39:49;;;;;;;10.88;2.45;;;;;;;9.95;100.00;102156.16;5262331;28;20048;-66
2021/09/28 04:42:20;;;;;;;8.07;2.40;;;;;;;9.94;100.00;102157.94;5266781;28;20024;-67
2021/09/28 04:44:52;;;;;;;7.78;2.45;;;;;;;9.93;100.00;102164.13;5264492;28;20111;-67
2021/09/28 04:47:23;;;;;;;7.22;2.60;;;;;;;9.92;100.00;102159.78;5264714;28;20524;-67
2021/09/28 04:49:54;;;;;;;10.73;2.88;;;;;;;9.95;100.00;102164.84;5263291;28;20036;-66
2021/09/28 04:52:26;;;;;;;8.57;2.33;;;;;;;9.92;100.00;102165.03;5266555;28;20028;-67
2021/09/28 04:54:57;;;;;;;7.65;2.15;;;;;;;9.93;100.00;102169.34;5264177;28;20509;-66
2021/09/28 04:57:29;;;;;;;8.73;2.58;;;;;;;9.95;100.00;102167.47;5264901;28;20119;-67
2021/09/28 05:00:00;;;;;;;10.15;2.97;;;;;;;9.94;100.00;102168.41;5261984;28;20487;-67
2021/09/28 05:02:32;;;;;;;5.72;2.10;;;;;;;9.91;100.00;102165.97;5254687;28;20042;-66
2021/09/28 05:05:05;;;;;;;12.00;2.80;;;;;;;9.92;100.00;102166.81;5262595;28;20103;-67
2021/09/28 05:07:37;;;;;;;;;;;;;;;10.21;100.00;102165.88;5259855;28;20048;-66
2021/09/28 05:10:09;;;;;;;8.07;2.60;;;;;;;9.88;100.00;102163.53;5264043;28;20443;-67
2021/09/28 05:12:40;;;;;;;11.57;2.90;;;;;;;9.85;100.00;102166.38;5261485;28;20033;-67
2021/09/28 05:15:12;;;;;;;13.82;3.00;;;;;;;9.84;100.00;102158.59;5262590;28;20028;-67
2021/09/28 05:17:43;;;;;;;10.38;2.53;;;;;;;9.82;100.00;102163.94;5263698;28;20040;-67
2021/09/28 05:20:15;;;;;;;8.05;2.45;;;;;;;9.85;100.00;102169.00;5264597;28;20162;-68
2021/09/28 05:22:46;;;;;;;10.15;2.80;;;;;;;9.81;100.00;102162.25;5264322;28;20449;-67
2021/09/28 05:25:18;;;;;;;12.23;2.97;;;;;;;9.75;100.00;102162.63;5261879;28;20037;-67
2021/09/28 05:27:49;;;;;;;9.30;2.65;;;;;;;9.79;100.00;102171.13;5261943;28;20048;-68
2021/09/28 05:30:21;;;;;;;10.43;2.45;;;;;;;9.79;100.00;102173.75;5259773;28;20063;-67
2021/09/28 05:32:56;;;;;;;10.15;2.40;;;;;;;9.77;100.00;102171.19;5263812;28;20040;-67
2021/09/28 05:35:27;;;;;;;12.43;2.58;;;;;;;9.76;100.00;102169.53;5262673;28;20451;-68
2021/09/28 05:37:59;;;;;;;11.57;2.90;;;;;;;9.77;100.00;102165.97;5265456;28;20029;-67
2021/09/28 05:40:33;;;;;;;9.65;2.67;;;;;;;9.75;100.00;102178.31;5262947;28;20064;-67
2021/09/28 05:43:05;;;;;;;9.90;2.72;;;;;;;9.75;100.00;102179.16;5258540;28;20033;-67
2021/09/28 05:45:36;;;;;;;9.45;2.67;;;;;;;9.74;100.00;102176.63;5251938;28;20101;-67
2021/09/28 05:48:08;;;;;;;7.97;2.63;;;;;;;9.76;100.00;102180.00;5260968;28;20487;-67
2021/09/28 05:50:40;;;;;;;11.40;2.63;;;;;;;9.75;100.00;102179.16;5261398;28;20479;-67
2021/09/28 05:53:11;;;;;;;8.30;3.17;;;;;;;9.71;100.00;102174.19;5257927;28;20105;-67
2021/09/28 05:55:43;;;;;;;10.73;2.95;;;;;;;9.77;100.00;102186.06;5265744;28;20452;-67
2021/09/28 05:58:14;;;;;;;12.60;3.20;;;;;;;9.75;100.00;102184.38;5266180;28;20725;-67
2021/09/28 06:00:45;;;;;;;9.60;3.15;;;;;;;9.76;100.00;102185.22;5256289;28;20466;-67
2021/09/28 06:03:17;;;;;;;8.18;2.22;;;;;;;9.79;100.00;102195.50;5252818;28;20478;-67
2021/09/28 06:05:48;;;;;;;15.40;3.40;;;;;;;9.79;100.00;102195.50;5262350;28;20043;-67
2021/09/28 06:08:19;;;;;;;13.32;2.80;;;;;;;9.79;100.00;102205.97;5262454;28;20033;-67
2021/09/28 06:10:51;;;;;;;11.98;3.05;;;;;;;9.77;100.00;102188.69;5259815;28;20036;-67
2021/09/28 06:13:22;;;;;;;7.10;2.50;;;;;;;9.80;100.00;102196.34;5262414;28;20021;-67
2021/09/28 06:15:53;;;;;;;7.57;3.22;;;;;;;9.86;100.00;102198.63;5258505;28;20024;-67
2021/09/28 06:18:25;;;;;;;7.45;3.50;;;;;;;9.84;100.00;102195.22;5260195;28;20029;-66
2021/09/28 06:20:56;;;;;;;11.88;3.80;;;;;;;9.85;100.00;102196.91;5258591;28;20035;-66
2021/09/28 06:23:27;;;;;;;7.75;2.90;;;;;;;9.87;100.00;102200.28;5260856;28;20069;-66
2021/09/28 06:25:59;;;;;;;12.68;3.72;;;;;;;9.88;100.00;102200.19;5263026;28;20036;-66
2021/09/28 06:28:30;;;;;;;12.95;3.38;;;;;;;9.89;100.00;102188.81;5262952;28;20031;-66
2021/09/28 06:31:01;;;;;;;10.82;3.60;;;;;;;9.92;100.00;102196.44;5261568;28;20587;-66
2021/09/28 06:33:33;;;;;;;15.38;3.80;;;;;;;9.94;100.00;102199.81;5268718;28;20028;-66
2021/09/28 06:36:04;;;;;;;16.05;4.57;;;;;;;9.98;100.00;102195.25;5266943;28;20035;-67
2021/09/28 06:38:35;;;;;;;14.63;4.13;;;;;;;10.01;100.00;102205.53;5264475;28;20055;-66
2021/09/28 06:41:07;;;;;;;11.80;3.92;;;;;;;10.05;100.00;102207.03;5268189;28;20017;-67
2021/09/28 06:43:38;;;;;;;13.90;4.00;;;;;;;10.08;100.00;102211.25;5262823;28;20056;-66
2021/09/28 06:46:09;;;;;;;10.75;3.85;;;;;;;10.13;100.00;102206.56;5259244;28;20119;-66
2021/09/28 06:48:41;;;;;;;13.32;3.70;;;;;;;10.16;100.00;102214.25;5259754;28;20037;-66
2021/09/28 06:51:12;;;;;;;13.85;4.13;;;;;;;10.19;100.00;102211.41;5265200;28;20127;-66
2021/09/28 06:53:45;;;;;;;14.85;4.72;;;;;;;10.24;100.00;102214.63;5267129;28;20025;-67
2021/09/28 06:56:20;;;;;;;12.82;4.07;;;;;;;10.32;100.00;102208.94;5264992;28;20147;-66
2021/09/28 06:58:52;;;;;;;19.77;5.10;;;;;;;10.35;100.00;102214.00;5265546;28;20028;-67
2021/09/28 07:01:23;;;;;;;15.45;4.63;;;;;;;10.42;100.00;102210.88;5263577;28;20077;-66
2021/09/28 07:03:55;;;;;;;13.93;4.30;;;;;;;10.47;100.00;102210.59;5266881;28;20481;-66
2021/09/28 07:06:27;;;;;;;10.60;3.90;;;;;;;10.51;100.00;102211.25;5265663;28;20406;-66
2021/09/28 07:09:00;;;;;;;13.23;4.07;;;;;;;10.59;100.00;102206.38;5265787;28;20017;-66
2021/09/28 07:11:31;;;;;;;12.53;4.17;;;;;;;10.64;100.00;102206.91;5264638;28;20052;-66
2021/09/28 07:14:02;;;;;;;9.38;3.92;;;;;;;10.69;100.00;102213.56;5265252;28;20321;-66
2021/09/28 07:16:34;;;;;;;10.73;4.05;;;;;;;10.76;100.00;102214.00;5260163;28;20119;-66
2021/09/28 07:19:05;;;;;;;9.93;3.97;;;;;;;10.82;100.00;102212.75;5262549;28;20262;-66
2021/09/28 07:21:38;;;;;;;13.35;4.38;;;;;;;10.90;100.00;102211.31;5265415;28;20029;-67
2021/09/28 07:24:10;;;;;;;13.15;4.85;;;;;;;10.97;100.00;102217.03;5261063;28;20086;-66
2021/09/28 07:26:42;;;;;;;15.90;4.65;;;;;;;11.05;100.00;102219.97;5261654;28;20234;-67
2021/09/28 07:29:13;;;;;;;10.82;4.60;;;;;;;11.12;100.00;102226.53;5264470;28;20060;-68
2021/09/28 07:31:45;;;;;;;9.93;4.22;;;;;;;11.18;100.00;102206.94;5263038;28;20032;-67
2021/09/28 07:34:16;;;;;;;13.75;4.57;;;;;;;11.27;100.00;102219.44;5258710;28;20028;-67
2021/09/28 07:36:47;;;;;;;15.10;5.00;;;;;;;11.31;100.00;102214.81;5263947;28;20064;-67
2021/09/28 07:39:19;;;;;;;11.93;4.47;;;;;;;11.37;100.00;102215.25;5257219;28;20064;-67
2021/09/28 07:41:51;;;;;;;17.13;4.70;;;;;;;11.47;100.00;102223.34;5262717;28;20391;-67
2021/09/28 07:44:24;;;;;;;17.08;4.18;;;;;;;11.52;100.00;102213.41;5267092;28;20029;-67
2021/09/28 07:46:55;;;;;;;12.10;4.32;;;;;;;11.62;100.00;102219.69;5263126;28;20077;-67
2021/09/28 07:49:27;;;;;;;18.45;5.00;;;;;;;11.73;100.00;102216.34;5256846;28;20554;-67
2021/09/28 07:51:58;;;;;;;11.13;4.57;;;;;;;11.78;100.00;102216.03;5267221;28;20088;-67
2021/09/28 07:54:29;;;;;;;11.48;4.25;;;;;;;11.85;100.00;102226.06;5265571;28;20029;-68
2021/09/28 07:57:05;;;;;;;11.20;4.93;;;;;;;12.00;100.00;102223.31;5261929;28;20025;-68
2021/09/28 07:59:37;;;;;;;14.77;4.35;;;;;;;12.03;100.00;102223.97;5265999;28;20024;-68
2021/09/28 08:02:09;;;;;;;11.13;5.00;;;;;;;12.15;100.00;102227.53;5263820;28;20028;-68
2021/09/28 08:04:41;;;;;;;11.82;4.18;;;;;;;12.23;100.00;102224.34;5263752;28;20035;-67
2021/09/28 08:07:17;;;;;;;10.88;4.03;;;;;;;12.35;100.00;102231.38;5261140;28;20375;-68
2021/09/28 08:09:48;;;;;;;12.70;4.00;;;;;;;12.36;100.00;102219.94;5254907;28;20029;-67
2021/09/28 08:12:19;;;;;;;14.80;4.38;;;;;;;12.48;100.00;102228.75;5252320;28;20050;-67
2021/09/28 08:14:51;;;;;;;11.00;3.70;;;;;;;12.59;100.00;102226.19;5255506;28;20028;-68
2021/09/28 08:17:23;;;;;;;16.92;4.22;;;;;;;12.70;100.00;102228.91;5258815;28;20028;-67
2021/09/28 08:19:54;;;;;;;10.32;4.35;;;;;;;12.73;100.00;102226.06;5257364;28;20031;-67
2021/09/28 08:22:26;;;;;;;9.77;3.72;;;;;;;12.83;100.00;102229.69;5264847;28;20032;-68
2021/09/28 08:25:06;;;;;;;14.70;4.35;;;;;;;12.96;100.00;102227.03;5260951;28;20033;-67
2021/09/28 08:30:28;;;;;;;9.70;3.00;;;;;;;13.08;100.00;102225.28;5264805;28;20478;-67
2021/09/28 08:33:00;;;;;;;13.27;3.58;;;;;;;13.14;100.00;102222.19;5257265;28;20033;-67
2021/09/28 08:35:31;;;;;;;15.82;3.72;;;;;;;13.26;100.00;102220.47;5256251;28;20094;-67
2021/09/28 08:38:02;;;;;;;8.73;3.17;;;;;;;13.39;100.00;102224.72;5259266;28;20083;-68
2021/09/28 08:40:34;;;;;;;12.27;3.50;;;;;;;13.57;100.00;102226.94;5262211;28;20095;-68
2021/09/28 08:43:05;;;;;;;14.82;3.85;;;;;;;13.69;100.00;102226.00;5259081;28;20029;-68
2021/09/28 08:45:36;;;;;;;14.18;4.03;;;;;;;13.78;100.00;102221.81;5258942;28;20064;-68
2021/09/28 08:48:11;;;;;;;15.85;3.72;;;;;;;13.95;100.00;102221.38;5264242;28;20390;-68
2021/09/28 08:50:47;;;;;;;10.15;3.22;;;;;;;13.97;100.00;102221.22;5265015;28;20029;-68
2021/09/28 08:53:20;;;;;;;13.77;2.72;;;;;;;13.95;100.00;102210.81;5265242;28;20067;-68
2021/09/28 08:55:51;;;;;;;14.93;3.50;;;;;;;14.11;100.00;102219.22;5263269;28;20629;-68
2021/09/28 08:58:24;;;;;;;9.57;3.03;;;;;;;14.14;100.00;102207.59;5261272;28;20113;-67
2021/09/28 09:01:04;;;;;;;12.13;3.40;;;;;;;14.33;100.00;102221.00;5258717;28;20021;-67
2021/09/28 09:03:36;;;;;;;11.93;2.90;;;;;;;14.42;100.00;102219.44;5263293;28;20124;-68
2021/09/28 09:06:08;;;;;;;12.02;4.05;;;;;;;14.53;100.00;102219.44;5264517;28;20056;-68
2021/09/28 09:08:40;;;;;;;10.05;2.90;;;;;;;14.69;100.00;102220.88;5259485;28;20099;-67
2021/09/28 09:11:13;;;;;;;9.45;2.83;;;;;;;14.86;100.00;102220.34;5265845;28;20029;-68
2021/09/28 09:13:47;;;;;;;12.77;3.17;;;;;;;14.91;100.00;102219.97;5262996;28;20056;-67
2021/09/28 09:16:19;;;;;;;11.55;2.75;;;;;;;14.98;100.00;102221.16;5253759;28;20043;-67
2021/09/28 09:19:11;;;;;;;11.45;3.22;;;;;;;15.24;100.00;102233.06;5255565;28;20032;-67
2021/09/28 09:21:48;;;;;;;13.52;3.65;;;;;;;15.30;100.00;102224.63;5255565;28;20530;-68
2021/09/28 09:24:42;;;;;;;10.27;2.65;;;;;;;15.47;100.00;102217.09;5260087;28;20025;-67
2021/09/28 09:27:17;;;;;;;12.32;2.38;;;;;;;15.61;100.00;102223.84;5261586;28;20025;-68
2021/09/28 09:30:14;;;;;;;14.88;3.13;;;;;;;15.75;100.00;102215.63;5256300;28;20025;-68
2021/09/28 09:32:56;;;;;;;11.15;2.80;;;;;;;15.91;100.00;102216.00;5261079;28;20041;-68
2021/09/28 09:35:30;;;;;;;8.77;3.13;;;;;;;15.96;100.00;102205.03;5262532;28;20031;-68
2021/09/28 09:38:06;;;;;;;10.88;2.70;;;;;;;16.11;100.00;102206.34;5258616;28;20024;-68
2021/09/28 09:40:40;;;;;;;14.05;2.92;;;;;;;16.09;100.00;102200.34;5264245;28;20080;-68
2021/09/28 09:43:15;;;;;;;11.82;2.88;;;;;;;16.25;100.00;102192.78;5262354;28;20375;-68
2021/09/28 09:45:46;;;;;;;12.88;2.60;;;;;;;16.34;100.00;102200.88;5264785;28;20032;-68
2021/09/28 09:48:25;;;;;;;13.48;2.55;;;;;;;16.49;100.00;102195.06;5264528;28;20577;-67
2021/09/28 09:51:02;;;;;;;10.65;2.53;;;;;;;16.54;100.00;102192.00;5264722;28;20028;-69
2021/09/28 09:53:37;;;;;;;11.77;3.28;;;;;;;16.60;100.00;102201.22;5265761;28;20480;-68
2021/09/28 09:56:09;;;;;;;13.27;3.25;;;;;;;16.67;100.00;102187.31;5261752;28;20028;-69
2021/09/28 09:58:40;;;;;;;13.45;2.88;;;;;;;16.87;100.00;102184.72;5264155;28;20101;-68
2021/09/28 10:01:12;;;;;;;10.35;2.50;;;;;;;16.77;100.00;102188.16;5263664;28;20032;-69
2021/09/28 10:03:44;;;;;;;11.68;3.10;;;;;;;16.86;100.00;102189.16;5262805;28;20478;-69
2021/09/28 10:06:15;;;;;;;8.55;2.50;;;;;;;17.00;100.00;102194.03;5263411;28;20033;-68
2021/09/28 10:08:47;;;;;;;11.30;2.90;;;;;;;17.08;100.00;102173.97;5266944;28;20382;-68
2021/09/28 10:11:19;;;;;;;10.18;2.25;;;;;;;17.08;100.00;102188.03;5269057;28;20028;-68
2021/09/28 10:13:53;;;;;;;11.25;2.75;;;;;;;17.18;100.00;102180.09;5267157;28;20462;-68
2021/09/28 10:16:30;;;;;;;9.43;2.35;;;;;;;17.17;100.00;102179.28;5268401;28;20032;-69
2021/09/28 10:19:04;;;;;;;10.73;2.55;;;;;;;17.26;100.00;102173.13;5266715;28;20581;-68
2021/09/28 10:21:43;;;;;;;8.52;2.03;;;;;;;17.38;100.00;102172.97;5263444;28;20039;-69
2021/09/28 10:24:17;;;;;;;10.88;2.20;;;;;;;17.48;100.00;102179.91;5268134;28;20029;-69
2021/09/28 10:27:00;;;;;;;8.43;2.50;;;;;;;17.63;100.00;102171.50;5263687;28;20132;-68
2021/09/28 10:29:41;;;;;;;10.30;2.17;;;;;;;17.62;100.00;102169.84;5264225;28;20494;-68
2021/09/28 10:32:24;;;;;;;11.07;2.22;;;;;;;17.78;100.00;102166.63;5263812;28;20145;-68
2021/09/28 10:35:01;;;;;;;;;;;;;;;17.98;100.00;102165.56;5266418;28;20466;-69
2021/09/28 10:37:39;;;;;;;10.48;2.17;;;;;;;17.81;100.00;102158.38;5263706;28;20194;-69
2021/09/28 10:40:13;;;;;;;7.47;2.13;;;;;;;17.68;100.00;102159.50;5268824;28;20423;-68
2021/09/28 10:42:55;;;;;;;11.27;2.58;;;;;;;17.79;100.00;102157.69;5268197;28;20038;-68
2021/09/28 10:45:30;;;;;;;10.32;2.63;;;;;;;17.82;100.00;102152.09;5262800;28;20063;-68
2021/09/28 10:48:07;;;;;;;7.78;2.25;;;;;;;17.96;100.00;102149.81;5265227;28;20115;-68
2021/09/28 10:50:41;;;;;;;12.80;2.58;;;;;;;17.87;100.00;102141.88;5268258;28;20059;-69
2021/09/28 10:53:15;;;;;;;10.20;1.95;;;;;;;18.06;100.00;102139.13;5268197;28;20127;-69
2021/09/28 10:55:55;;;;;;;8.25;2.15;;;;;;;17.99;100.00;102133.59;5265570;28;20028;-69
2021/09/28 10:58:28;;;;;;;7.63;1.83;;;;;;;18.09;100.00;102127.41;5268914;28;20021;-68
2021/09/28 11:01:05;;;;;;;6.05;1.85;;;;;;;18.10;100.00;102127.25;5266766;28;20060;-69
2021/09/28 11:03:57;;;;;;;8.60;1.92;;;;;;;18.17;100.00;102123.00;5266606;28;20111;-69
2021/09/28 11:06:51;;;;;;;10.52;2.15;;;;;;;18.27;100.00;102119.47;5267350;28;20021;-69
2021/09/28 11:09:26;;;;;;;11.45;2.65;;;;;;;18.16;100.00;102121.34;5261529;28;20025;-69
2021/09/28 11:11:58;;;;;;;8.93;2.00;;;;;;;18.32;100.00;102114.56;5260993;28;20098;-68
2021/09/28 11:14:37;;;;;;;7.95;2.10;;;;;;;18.33;100.00;102117.03;5265588;28;20039;-69
2021/09/28 11:17:13;;;;;;;9.48;2.40;;;;;;;18.33;100.00;102109.09;5265997;28;20035;-69
2021/09/28 11:19:45;;;;;;;7.43;1.88;;;;;;;18.50;100.00;102109.28;5263619;28;20040;-68
2021/09/28 11:22:19;;;;;;;10.80;2.25;;;;;;;18.44;100.00;102116.00;5261878;28;20021;-68
2021/09/28 11:24:51;;;;;;;9.23;1.90;;;;;;;18.63;100.00;102109.72;5256511;28;20029;-69
2021/09/28 11:27:22;;;;;;;8.43;2.15;;;;;;;18.62;100.00;102106.22;5256656;28;20025;-68
2021/09/28 11:29:54;;;;;;;8.43;1.95;;;;;;;18.78;100.00;102102.06;5259788;28;20085;-69
2021/09/28 11:32:25;;;;;;;7.13;2.00;;;;;;;18.67;100.00;102105.75;5265151;28;20044;-69
2021/09/28 11:34:58;;;;;;;9.18;2.63;;;;;;;18.73;100.00;102099.06;5264238;28;20016;-69
2021/09/28 11:37:30;;;;;;;6.78;2.03;;;;;;;18.64;100.00;102103.44;5267229;28;20024;-69
2021/09/28 11:40:02;;;;;;;9.57;2.60;;;;;;;18.58;100.00;102096.06;5268078;28;20088;-69
2021/09/28 11:42:33;;;;;;;7.40;1.90;;;;;;;18.53;100.00;102096.53;5263928;28;20037;-69